Overview Statistics Trail Chart Weather Telemetry Raw packets
 

This is the latest recevied weather packets stored in our database for station/object DL6DJ-15. If no packets are shown the sender has not sent any weather packets the latest 10 day(s).

<< 28 29 30 31 32 33 34 >>
Time Temp. Humidity Pressure Rain* Wind** Luminosity Snow
1788418504 22.22° C 53% 1024.1 hPa - - - -
1788418204 21.67° C 53% 1024.2 hPa - - - -
1788417903 20.56° C 59% 1024.1 hPa - - - -
1788417603 20.56° C 57% 1024.2 hPa - - - -
1788417302 20.56° C 56% 1024.2 hPa - - - -
1788417002 21.67° C 52% 1024 hPa - - - -
1788416701 22.78° C 50% 1023.9 hPa - - - -
1788416401 22.78° C 53% 1023.8 hPa - - - -
1788416101 20.56° C 62% 1023.8 hPa - - - -
1788415800 18.89° C 67% 1023.7 hPa - - - -
1788415500 18.33° C 70% 1023.7 hPa - - - -
1788415200 16.67° C 78% 1023.8 hPa - - - -
1788414899 16.11° C 80% 1023.7 hPa - - - -
1788414599 15.56° C 81% 1023.6 hPa - - - -
1788414299 15.56° C 81% 1023.7 hPa - - - -
1788413998 15° C 82% 1023.6 hPa - - - -
1788413698 15° C 83% 1023.6 hPa - - - -
1788413397 14.44° C 83% 1023.5 hPa - - - -
1788413097 13.89° C 85% 1023.4 hPa - - - -
1788412797 13.89° C 85% 1023.4 hPa - - - -
1788412496 13.89° C 83% 1023.3 hPa - - - -
1788412196 13.89° C 83% 1023.2 hPa - - - -
1788411895 13.89° C 84% 1023.3 hPa - - - -
1788411595 13.33° C 84% 1023.4 hPa - - - -
1788411294 13.33° C 86% 1023.4 hPa - - - -

* Rain since midnight (hover to see other rain measurements)
** Current wind speed in m/s (hover to see current wind gust speed)